createdAt,value
2023-05-06T00:00:29.371Z,12.40
2023-05-06T00:02:56.967Z,12.30
2023-05-06T00:05:26.944Z,12.20
2023-05-06T00:07:54.752Z,12.10
2023-05-06T00:10:23.287Z,12.10
2023-05-06T00:12:51.362Z,12.10
2023-05-06T00:15:18.966Z,11.80
2023-05-06T00:17:46.833Z,11.90
2023-05-06T00:20:14.973Z,11.90
2023-05-06T00:22:42.506Z,11.80
2023-05-06T00:25:11.003Z,11.80
2023-05-06T00:27:39.069Z,11.70
2023-05-06T00:30:06.973Z,11.70
2023-05-06T00:32:34.386Z,11.60
2023-05-06T00:35:02.470Z,11.60
2023-05-06T00:37:31.329Z,11.50
2023-05-06T00:39:59.331Z,11.50
2023-05-06T00:42:26.910Z,11.50
2023-05-06T00:44:54.494Z,11.70
2023-05-06T00:49:51.107Z,11.30
2023-05-06T00:52:20.400Z,11.30
2023-05-06T00:54:47.893Z,11.20
2023-05-06T00:57:15.566Z,11.10
2023-05-06T00:59:44.128Z,11.10
2023-05-06T01:02:12.282Z,11.10
2023-05-06T01:04:41.604Z,11.00
2023-05-06T01:07:29.954Z,11.00
2023-05-06T01:10:08.301Z,11.00
2023-05-06T01:13:03.156Z,11.00
2023-05-06T01:15:38.925Z,11.00
2023-05-06T01:18:11.503Z,11.00
2023-05-06T01:20:42.380Z,11.00
2023-05-06T01:23:14.908Z,11.00
2023-05-06T01:25:44.375Z,11.00
2023-05-06T01:28:13.101Z,11.00
2023-05-06T01:33:35.570Z,11.00
2023-05-06T01:36:32.292Z,11.00
2023-05-06T01:39:20.497Z,10.90
2023-05-06T01:41:50.295Z,10.90
2023-05-06T01:44:22.232Z,10.80
2023-05-06T01:46:57.661Z,10.80
2023-05-06T01:49:35.690Z,10.70
2023-05-06T01:52:04.269Z,10.60
2023-05-06T01:54:35.037Z,10.60
2023-05-06T02:00:12.583Z,10.50
2023-05-06T02:02:40.531Z,10.60
2023-05-06T02:05:09.817Z,10.60
2023-05-06T02:07:46.775Z,10.60
2023-05-06T02:10:14.714Z,11.40
2023-05-06T02:12:47.420Z,10.60
2023-05-06T02:15:16.301Z,10.60
2023-05-06T02:17:44.739Z,10.60
2023-05-06T02:20:12.629Z,10.60
2023-05-06T02:22:41.607Z,10.80
2023-05-06T02:25:09.451Z,10.70
2023-05-06T02:27:37.620Z,10.80
2023-05-06T02:30:06.543Z,10.90
2023-05-06T02:32:34.050Z,10.90
2023-05-06T02:35:01.737Z,11.00
2023-05-06T02:37:32.260Z,11.00
2023-05-06T02:40:02.649Z,11.00
2023-05-06T02:42:34.134Z,11.10
2023-05-06T02:45:01.845Z,11.10
2023-05-06T02:47:29.297Z,11.20
2023-05-06T02:49:57.026Z,11.20
2023-05-06T02:52:24.604Z,11.30
2023-05-06T02:54:52.178Z,10.40
2023-05-06T02:57:19.879Z,11.40
2023-05-06T02:59:47.310Z,11.30
2023-05-06T03:02:32.003Z,11.50
2023-05-06T03:05:23.459Z,11.40
2023-05-06T03:07:55.925Z,9.80
2023-05-06T03:10:54.630Z,11.90
2023-05-06T03:14:43.014Z,11.50
2023-05-06T03:17:14.602Z,11.50
2023-05-06T03:19:42.609Z,10.80
2023-05-06T03:22:30.104Z,11.50
2023-05-06T03:25:09.055Z,11.60
2023-05-06T03:27:39.817Z,12.90
2023-05-06T03:31:10.258Z,11.60
2023-05-06T03:33:38.061Z,10.20
2023-05-06T03:36:08.498Z,11.70
2023-05-06T03:38:36.775Z,14.90
2023-05-06T03:44:15.990Z,11.80
2023-05-06T03:52:38.452Z,11.80
2023-05-06T03:55:11.756Z,13.00
2023-05-06T03:57:40.591Z,13.70
2023-05-06T04:02:58.326Z,11.50
2023-05-06T04:05:35.435Z,11.60
2023-05-06T04:08:03.186Z,11.50
2023-05-06T04:10:33.011Z,11.60
2023-05-06T04:13:09.635Z,12.60
2023-05-06T04:15:48.564Z,11.50
2023-05-06T04:18:20.494Z,11.50
2023-05-06T04:20:57.074Z,11.50
2023-05-06T04:23:25.686Z,11.60
2023-05-06T04:25:54.435Z,11.60
2023-05-06T04:28:24.377Z,11.60
2023-05-06T04:30:52.920Z,11.70
2023-05-06T04:33:25.243Z,11.70
2023-05-06T04:35:54.777Z,11.70
2023-05-06T04:38:23.891Z,13.30
2023-05-06T04:40:52.070Z,11.80
2023-05-06T04:43:19.709Z,11.90
2023-05-06T04:45:49.953Z,11.90
2023-05-06T04:48:22.759Z,11.90
2023-05-06T04:50:51.713Z,12.00
2023-05-06T04:53:19.531Z,12.00
2023-05-06T04:55:48.793Z,12.20
2023-05-06T04:58:20.095Z,12.10
2023-05-06T05:00:48.848Z,12.00
2023-05-06T05:03:16.857Z,10.80
2023-05-06T05:05:47.215Z,13.20
2023-05-06T05:08:19.211Z,13.30
2023-05-06T05:10:47.242Z,12.40
2023-05-06T05:13:21.201Z,12.30
2023-05-06T05:15:50.429Z,12.40
2023-05-06T05:18:17.854Z,12.40
2023-05-06T05:20:47.473Z,12.50
2023-05-06T05:23:16.277Z,12.50
2023-05-06T05:25:46.451Z,12.50
2023-05-06T05:31:13.619Z,11.50
2023-05-06T05:33:42.566Z,12.70
2023-05-06T05:36:15.555Z,12.60
2023-05-06T05:38:47.958Z,12.80
2023-05-06T05:41:19.005Z,11.80
2023-05-06T05:43:47.822Z,12.60
2023-05-06T05:46:17.196Z,12.40
2023-05-06T05:48:47.273Z,11.80
2023-05-06T05:51:15.277Z,14.30
2023-05-06T05:53:44.502Z,12.90
2023-05-06T05:56:13.034Z,14.20
2023-05-06T05:58:42.119Z,13.00
2023-05-06T06:01:10.258Z,13.10
2023-05-06T06:03:38.712Z,13.10
2023-05-06T06:06:06.496Z,13.20
2023-05-06T06:08:34.906Z,12.10
2023-05-06T06:11:06.338Z,13.40
2023-05-06T06:13:38.918Z,13.40
2023-05-06T06:16:07.707Z,13.60
2023-05-06T06:18:35.348Z,13.70
2023-05-06T06:21:03.666Z,13.70
2023-05-06T06:23:31.499Z,13.90
2023-05-06T06:25:59.780Z,13.90
2023-05-06T06:28:27.318Z,14.00
2023-05-06T06:30:54.949Z,13.50
2023-05-06T06:33:23.202Z,14.50
2023-05-06T06:35:56.199Z,14.10
2023-05-06T06:38:24.019Z,14.20
2023-05-06T06:40:51.511Z,14.30
2023-05-06T06:43:22.169Z,14.20
2023-05-06T06:46:12.425Z,14.30
2023-05-06T06:48:39.990Z,14.20
2023-05-06T06:51:07.851Z,14.40
2023-05-06T06:53:35.601Z,14.50
2023-05-06T06:56:03.543Z,14.60
2023-05-06T06:58:33.005Z,14.70
2023-05-06T07:01:00.469Z,14.70
2023-05-06T07:03:27.961Z,14.80
2023-05-06T07:05:55.589Z,14.90
2023-05-06T07:08:23.043Z,14.90
2023-05-06T07:10:50.770Z,15.00
2023-05-06T07:13:20.903Z,15.00
2023-05-06T07:15:48.598Z,15.00
2023-05-06T07:18:16.728Z,15.10
2023-05-06T07:20:44.479Z,15.10
2023-05-06T07:23:12.061Z,16.80
2023-05-06T07:25:39.623Z,15.20
2023-05-06T07:28:07.084Z,15.30
2023-05-06T07:30:34.575Z,15.30
2023-05-06T07:33:02.174Z,15.40
2023-05-06T07:35:29.663Z,15.50
2023-05-06T07:37:57.027Z,15.70
2023-05-06T07:40:24.499Z,15.70
2023-05-06T07:42:52.439Z,15.80
2023-05-06T07:45:23.400Z,15.90
2023-05-06T07:47:51.414Z,15.90
2023-05-06T07:50:19.037Z,16.00
2023-05-06T07:52:46.441Z,16.10
2023-05-06T07:55:14.007Z,16.20
2023-05-06T07:57:41.595Z,16.30
2023-05-06T08:00:10.380Z,18.50
2023-05-06T08:02:44.719Z,16.40
2023-05-06T08:05:13.207Z,16.50
2023-05-06T08:07:41.779Z,16.60
2023-05-06T08:10:09.856Z,16.50
2023-05-06T08:12:38.218Z,16.50
2023-05-06T08:15:06.090Z,17.20
2023-05-06T08:17:33.486Z,16.50
2023-05-06T08:20:01.201Z,16.50
2023-05-06T08:22:28.768Z,16.60
2023-05-06T08:24:57.551Z,16.50
2023-05-06T08:27:25.088Z,16.60
2023-05-06T08:29:52.592Z,16.70
2023-05-06T08:32:20.187Z,16.70
2023-05-06T08:34:47.705Z,16.60
2023-05-06T08:37:15.181Z,16.70
2023-05-06T08:39:42.625Z,16.70
2023-05-06T08:42:10.251Z,16.70
2023-05-06T08:44:38.308Z,16.60
2023-05-06T08:47:05.982Z,16.70
2023-05-06T08:49:33.781Z,16.80
2023-05-06T08:52:04.352Z,16.90
2023-05-06T08:54:34.335Z,17.00
2023-05-06T08:57:03.712Z,16.90
2023-05-06T08:59:32.862Z,16.90
2023-05-06T09:02:02.017Z,17.00
2023-05-06T09:04:29.908Z,17.10
2023-05-06T09:06:58.677Z,17.00
2023-05-06T09:09:26.610Z,16.90
2023-05-06T09:11:57.487Z,16.90
2023-05-06T09:14:25.515Z,16.90
2023-05-06T09:16:53.266Z,16.80
2023-05-06T09:19:22.550Z,16.80
2023-05-06T09:21:51.292Z,16.90
2023-05-06T09:24:18.910Z,16.90
2023-05-06T09:26:47.280Z,16.90
2023-05-06T09:29:15.212Z,17.00
2023-05-06T09:31:46.175Z,16.90
2023-05-06T09:34:14.385Z,16.80
2023-05-06T09:36:42.096Z,16.70
2023-05-06T09:39:10.396Z,16.70
2023-05-06T09:41:37.836Z,16.50
2023-05-06T09:44:06.473Z,16.50
2023-05-06T09:46:34.834Z,16.50
2023-05-06T09:49:02.614Z,16.60
2023-05-06T09:51:31.106Z,16.70
2023-05-06T09:53:59.370Z,16.70
2023-05-06T09:56:27.107Z,16.70
2023-05-06T09:58:55.089Z,16.70
2023-05-06T10:01:35.313Z,16.70
2023-05-06T10:04:06.212Z,16.70
2023-05-06T10:06:36.882Z,16.70
2023-05-06T10:09:06.503Z,16.80
2023-05-06T10:11:34.508Z,16.70
2023-05-06T10:14:02.368Z,16.70
2023-05-06T10:16:30.744Z,16.60
2023-05-06T10:18:58.494Z,16.60
2023-05-06T10:21:27.895Z,16.00
2023-05-06T10:24:00.237Z,16.40
2023-05-06T10:26:29.802Z,16.80
2023-05-06T10:28:58.273Z,16.10
2023-05-06T10:31:26.925Z,16.10
2023-05-06T10:33:54.975Z,16.10
2023-05-06T10:36:23.905Z,16.20
2023-05-06T10:38:56.692Z,16.20
2023-05-06T10:41:27.959Z,16.30
2023-05-06T10:43:59.593Z,16.30
2023-05-06T10:46:30.036Z,16.30
2023-05-06T10:49:04.725Z,16.30
2023-05-06T10:51:34.246Z,16.30
2023-05-06T10:54:07.084Z,16.40
2023-05-06T10:56:36.368Z,16.40
2023-05-06T10:59:09.485Z,16.50
2023-05-06T11:01:38.060Z,16.50
2023-05-06T11:04:12.548Z,16.60
2023-05-06T11:06:42.449Z,16.60
2023-05-06T11:09:17.872Z,16.80
2023-05-06T11:12:03.980Z,16.90
2023-05-06T11:14:38.553Z,17.10
2023-05-06T11:17:07.895Z,17.20
2023-05-06T11:19:36.550Z,17.30
2023-05-06T11:22:04.808Z,17.40
2023-05-06T11:24:42.315Z,17.60
2023-05-06T11:27:11.590Z,17.70
2023-05-06T11:29:39.228Z,17.80
2023-05-06T11:32:07.983Z,17.90
2023-05-06T11:34:36.890Z,17.90
2023-05-06T11:37:07.963Z,17.80
2023-05-06T11:39:40.403Z,17.80
2023-05-06T11:42:09.101Z,17.70
2023-05-06T11:44:37.410Z,17.80
2023-05-06T11:47:08.980Z,17.80
2023-05-06T11:49:36.933Z,17.70
2023-05-06T11:52:04.906Z,17.50
2023-05-06T11:54:36.562Z,17.40
2023-05-06T11:57:11.991Z,17.30
2023-05-06T11:59:47.033Z,17.20
2023-05-06T12:02:15.929Z,17.20
2023-05-06T12:04:49.509Z,17.20
2023-05-06T12:07:20.256Z,17.80
2023-05-06T12:10:14.470Z,17.90
2023-05-06T12:12:43.683Z,18.40
2023-05-06T12:15:11.865Z,18.50
2023-05-06T12:17:39.771Z,18.70
2023-05-06T12:20:07.822Z,17.90
2023-05-06T12:22:35.822Z,19.30
2023-05-06T12:25:14.624Z,19.60
2023-05-06T12:44:33.556Z,19.40
2023-05-06T12:47:18.740Z,18.70
2023-05-06T12:55:59.342Z,18.10
2023-05-06T12:58:26.810Z,18.00
2023-05-06T13:00:55.215Z,18.00
2023-05-06T13:03:22.958Z,18.00
2023-05-06T13:05:52.118Z,17.90
2023-05-06T13:08:19.578Z,17.80
2023-05-06T13:10:47.115Z,17.60
2023-05-06T13:13:14.805Z,17.50
2023-05-06T13:15:42.954Z,17.40
2023-05-06T13:18:10.444Z,17.40
2023-05-06T13:20:37.863Z,17.40
2023-05-06T13:23:07.061Z,17.50
2023-05-06T13:25:37.923Z,17.50
2023-05-06T13:28:09.787Z,17.50
2023-05-06T13:30:37.326Z,17.30
2023-05-06T13:33:05.396Z,17.20
2023-05-06T13:35:33.396Z,17.10
2023-05-06T13:38:02.605Z,17.20
2023-05-06T13:40:30.220Z,17.30
2023-05-06T13:42:57.923Z,17.50
2023-05-06T13:45:25.380Z,17.60
2023-05-06T13:47:53.143Z,17.70
2023-05-06T13:50:21.153Z,17.90
2023-05-06T13:52:49.759Z,18.00
2023-05-06T13:55:19.316Z,18.20
2023-05-06T13:57:47.316Z,18.40
2023-05-06T14:00:15.014Z,18.60
2023-05-06T14:02:42.567Z,18.70
2023-05-06T14:05:10.580Z,18.80
2023-05-06T14:07:40.349Z,18.70
2023-05-06T14:10:08.649Z,18.70
2023-05-06T14:12:36.278Z,18.60
2023-05-06T14:15:06.408Z,18.60
2023-05-06T14:17:33.703Z,18.50
2023-05-06T14:20:01.262Z,18.50
2023-05-06T14:22:29.111Z,18.40
2023-05-06T14:24:56.478Z,18.40
2023-05-06T14:27:23.970Z,18.40
2023-05-06T14:29:52.052Z,18.30
2023-05-06T14:32:19.696Z,18.20
2023-05-06T14:34:47.130Z,18.10
2023-05-06T14:37:14.723Z,18.00
2023-05-06T14:39:42.559Z,17.90
2023-05-06T14:42:09.985Z,17.80
2023-05-06T14:44:37.376Z,17.70
2023-05-06T14:47:04.899Z,17.60
2023-05-06T14:49:32.821Z,17.60
2023-05-06T14:52:00.340Z,17.50
2023-05-06T14:54:29.490Z,17.50
2023-05-06T14:57:02.693Z,17.60
2023-05-06T14:59:30.582Z,17.60
2023-05-06T15:01:59.002Z,17.50
2023-05-06T15:04:28.090Z,17.40
2023-05-06T15:06:57.744Z,17.30
2023-05-06T15:09:26.360Z,18.80
2023-05-06T15:11:54.091Z,17.40
2023-05-06T15:14:21.690Z,17.40
2023-05-06T15:16:49.158Z,17.40
2023-05-06T15:19:16.632Z,16.50
2023-05-06T15:21:46.217Z,15.20
2023-05-06T15:24:14.391Z,16.90
2023-05-06T15:26:42.694Z,16.70
2023-05-06T15:29:14.643Z,16.50
2023-05-06T15:31:43.800Z,16.30
2023-05-06T15:34:11.905Z,16.20
2023-05-06T15:36:41.422Z,16.10
2023-05-06T15:39:08.899Z,19.40
2023-05-06T15:41:38.341Z,16.00
2023-05-06T15:44:07.269Z,16.00
2023-05-06T15:46:34.750Z,15.80
2023-05-06T15:49:29.576Z,15.70
2023-05-06T15:51:50.507Z,15.40
2023-05-06T15:54:20.821Z,15.70
2023-05-06T15:56:49.277Z,14.50
2023-05-06T15:59:18.015Z,15.80
2023-05-06T16:04:16.782Z,15.80
2023-05-06T16:06:44.944Z,15.80
2023-05-06T16:09:12.486Z,15.80
2023-05-06T16:11:39.975Z,15.80
2023-05-06T16:14:07.524Z,15.80
2023-05-06T16:16:36.567Z,15.80
2023-05-06T16:19:04.341Z,15.70
2023-05-06T16:21:32.004Z,15.70
2023-05-06T16:24:00.855Z,15.70
2023-05-06T16:26:28.550Z,15.60
2023-05-06T16:28:56.138Z,15.60
2023-05-06T16:31:23.756Z,15.50
2023-05-06T16:33:51.187Z,15.50
2023-05-06T16:36:18.635Z,15.50
2023-05-06T16:38:46.591Z,15.50
2023-05-06T16:41:14.031Z,15.40
2023-05-06T16:43:41.968Z,15.40
2023-05-06T16:46:09.518Z,15.30
2023-05-06T16:48:38.178Z,15.20
2023-05-06T16:51:05.726Z,15.10
2023-05-06T16:53:36.255Z,15.00
2023-05-06T16:56:52.240Z,11.60
2023-05-06T16:59:22.403Z,15.00
2023-05-06T17:01:51.034Z,15.10
2023-05-06T17:04:18.596Z,15.10
2023-05-06T17:06:46.119Z,15.00
2023-05-06T17:09:13.509Z,15.10
2023-05-06T17:11:41.700Z,15.10
2023-05-06T17:14:10.217Z,15.10
2023-05-06T17:16:41.898Z,15.10
2023-05-06T17:19:09.503Z,15.10
2023-05-06T17:21:37.985Z,15.00
2023-05-06T17:24:06.607Z,15.00
2023-05-06T17:26:34.348Z,15.00
2023-05-06T17:29:02.917Z,14.90
2023-05-06T17:31:30.710Z,15.20
2023-05-06T17:33:59.054Z,15.10
2023-05-06T17:36:26.766Z,15.00
2023-05-06T17:39:05.023Z,15.10
2023-05-06T17:41:32.874Z,15.10
2023-05-06T17:44:00.434Z,15.10
2023-05-06T17:46:27.938Z,15.10
2023-05-06T17:48:59.312Z,15.10
2023-05-06T17:51:29.222Z,15.10
2023-05-06T17:53:58.902Z,15.10
2023-05-06T17:56:26.649Z,15.00
2023-05-06T17:58:54.213Z,15.00
2023-05-06T18:01:22.119Z,15.00
2023-05-06T18:03:50.668Z,15.00
2023-05-06T18:06:18.693Z,15.00
2023-05-06T18:08:48.232Z,15.00
2023-05-06T18:17:27.255Z,13.90
2023-05-06T18:22:58.929Z,14.90
2023-05-06T18:25:26.555Z,14.90
2023-05-06T18:27:55.144Z,14.80
2023-05-06T18:30:22.540Z,14.70
2023-05-06T18:34:28.322Z,14.70
2023-05-06T18:36:58.549Z,14.70
2023-05-06T18:39:26.655Z,14.70
2023-05-06T18:44:58.126Z,14.80
2023-05-06T18:47:33.368Z,14.80
2023-05-06T19:02:02.378Z,14.70
2023-05-06T19:04:31.640Z,14.70
2023-05-06T19:07:01.239Z,14.70
2023-05-06T19:09:28.980Z,14.70
2023-05-06T19:11:56.643Z,14.70
2023-05-06T19:14:25.527Z,14.70
2023-05-06T19:17:26.755Z,14.70
2023-05-06T19:19:54.601Z,14.70
2023-05-06T19:22:25.002Z,14.70
2023-05-06T19:24:59.207Z,14.70
2023-05-06T19:27:26.955Z,14.70
2023-05-06T19:29:55.247Z,14.70
2023-05-06T19:32:23.574Z,14.70
2023-05-06T19:37:19.272Z,14.70
2023-05-06T19:39:47.981Z,14.70
2023-05-06T19:42:17.883Z,14.70
2023-05-06T19:44:48.119Z,14.60
2023-05-06T19:47:15.925Z,14.70
2023-05-06T19:49:44.192Z,14.70
2023-05-06T19:52:13.235Z,14.70
2023-05-06T19:54:41.112Z,14.70
2023-05-06T19:57:08.630Z,14.70
2023-05-06T19:59:36.151Z,14.60
2023-05-06T20:02:03.820Z,14.60
2023-05-06T20:04:31.500Z,14.60
2023-05-06T20:06:59.130Z,14.60
2023-05-06T20:09:26.939Z,14.60
2023-05-06T20:11:54.650Z,14.50
2023-05-06T20:14:23.139Z,14.60
2023-05-06T20:16:54.686Z,14.60
2023-05-06T20:19:23.859Z,14.60
2023-05-06T20:21:51.581Z,14.50
2023-05-06T20:24:19.841Z,14.50
2023-05-06T20:26:47.487Z,14.60
2023-05-06T20:29:15.180Z,14.60
2023-05-06T20:31:46.996Z,14.60
2023-05-06T20:34:15.284Z,14.60
2023-05-06T20:36:43.400Z,14.50
2023-05-06T20:39:12.282Z,14.50
2023-05-06T20:41:40.117Z,14.50
2023-05-06T20:44:07.842Z,14.50
2023-05-06T20:46:35.655Z,14.50
2023-05-06T20:49:03.805Z,14.50
2023-05-06T20:51:32.630Z,14.50
2023-05-06T20:54:03.167Z,14.50
2023-05-06T20:56:31.757Z,14.40
2023-05-06T21:01:29.155Z,14.50
2023-05-06T21:03:58.940Z,14.50
2023-05-06T21:06:26.952Z,14.40
2023-05-06T21:08:55.283Z,14.40
2023-05-06T21:11:23.918Z,14.40
2023-05-06T21:13:51.844Z,14.40
2023-05-06T21:16:20.733Z,14.40
2023-05-06T21:18:49.321Z,14.40
2023-05-06T21:21:17.189Z,14.40
2023-05-06T21:23:45.795Z,14.30
2023-05-06T21:26:13.833Z,14.30
2023-05-06T21:28:41.614Z,14.30
2023-05-06T21:31:09.260Z,14.30
2023-05-06T21:33:37.118Z,14.30
2023-05-06T21:36:05.097Z,14.30
2023-05-06T21:38:32.854Z,14.30
2023-05-06T21:41:00.556Z,11.20
2023-05-06T21:43:32.038Z,14.20
2023-05-06T21:46:04.083Z,14.20
2023-05-06T21:48:31.729Z,14.10
2023-05-06T21:51:03.511Z,14.10
2023-05-06T21:53:31.451Z,14.10
2023-05-06T21:55:59.241Z,14.00
2023-05-06T21:58:27.037Z,14.10
2023-05-06T22:00:54.852Z,14.00
2023-05-06T22:03:22.601Z,14.00
2023-05-06T22:05:50.607Z,14.00
2023-05-06T22:08:18.802Z,14.00
2023-05-06T22:10:46.608Z,13.90
2023-05-06T22:13:14.250Z,14.00
2023-05-06T22:15:42.341Z,13.90
2023-05-06T22:18:10.978Z,13.90
2023-05-06T22:20:38.757Z,13.90
2023-05-06T22:23:06.480Z,13.90
2023-05-06T22:25:34.211Z,13.90
2023-05-06T22:28:03.072Z,13.90
2023-05-06T22:30:30.832Z,13.90
2023-05-06T22:32:58.608Z,13.90
2023-05-06T22:35:26.380Z,13.80
2023-05-06T22:37:54.272Z,13.90
2023-05-06T22:40:22.267Z,13.80
2023-05-06T22:42:50.158Z,13.70
2023-05-06T22:45:17.884Z,13.70
2023-05-06T22:47:46.055Z,13.70
2023-05-06T22:50:14.132Z,13.70
2023-05-06T22:52:42.062Z,13.70
2023-05-06T22:57:38.388Z,13.60
2023-05-06T23:00:07.591Z,13.60
2023-05-06T23:02:35.346Z,13.60
2023-05-06T23:05:03.067Z,13.60
2023-05-06T23:07:30.778Z,13.60
2023-05-06T23:09:59.793Z,13.60
2023-05-06T23:12:31.558Z,13.60
2023-05-06T23:15:00.107Z,13.60
2023-05-06T23:17:27.855Z,13.50
2023-05-06T23:22:23.586Z,13.50
2023-05-06T23:24:51.476Z,13.50
2023-05-06T23:27:19.381Z,13.50
2023-05-06T23:29:47.335Z,13.50
2023-05-06T23:32:14.963Z,13.60
2023-05-06T23:34:42.835Z,13.50
2023-05-06T23:37:14.496Z,13.50
2023-05-06T23:41:56.429Z,13.60
2023-05-06T23:44:31.654Z,13.50
2023-05-06T23:46:59.545Z,13.50
2023-05-06T23:49:27.352Z,13.50
2023-05-06T23:51:55.030Z,13.50
2023-05-06T23:54:24.975Z,13.60
2023-05-06T23:56:52.706Z,13.60
2023-05-06T23:59:20.356Z,13.60
